Time;durP1;ratioP1;P1;durP2;ratioP2;P2;SDS_P1;SDS_P2;PMS_P1;PMS_P2;Temp;Humidity;BMP_temperature;BMP_pressure;BME280_temperature;BME280_humidity;BME280_pressure;Samples;Min_cycle;Max_cycle;Signal;HPM_P1;HPM_P2
2022/01/17 00:00:12;;;;;;;;;43.75;35.25;;;;;8.50;68.09;102998.50;5035473;28;45501;-74
2022/01/17 00:02:38;;;;;;;;;38.00;32.75;;;;;8.63;67.88;103007.53;5019838;28;45320;-74
2022/01/17 00:05:08;;;;;;;;;39.25;35.00;;;;;8.82;68.35;103040.59;5020061;28;45580;-75
2022/01/17 00:07:34;;;;;;;;;35.00;31.75;;;;;8.76;68.20;103040.53;5019484;28;45443;-74
2022/01/17 00:09:59;;;;;;;;;37.00;33.00;;;;;8.81;68.19;103041.50;5018533;28;45999;-74
2022/01/17 00:12:28;;;;;;;;;35.00;32.75;;;;;8.81;68.42;103042.38;5018242;28;45546;-74
2022/01/17 00:14:56;;;;;;;;;33.75;29.75;;;;;8.75;68.14;103031.66;5018580;28;47944;-74
2022/01/17 00:19:52;;;;;;;;;35.00;32.50;;;;;8.70;68.13;103020.03;5009963;28;45902;-74
2022/01/17 00:22:20;;;;;;;;;36.50;35.25;;;;;8.85;67.75;103059.28;5034863;28;45520;-74
2022/01/17 00:24:45;;;;;;;;;38.25;31.75;;;;;8.92;68.40;103061.16;5019076;28;46978;-74
2022/01/17 00:27:10;;;;;;;;;36.00;32.00;;;;;8.71;68.41;103019.19;5018983;28;45553;-74
2022/01/17 00:29:36;;;;;;;;;38.25;33.75;;;;;8.66;68.55;103002.25;5019995;28;45549;-74
2022/01/17 00:32:01;;;;;;;;;34.25;31.50;;;;;8.92;68.51;103052.25;5019228;28;45419;-74
2022/01/17 00:34:27;;;;;;;;;42.00;34.50;;;;;8.77;68.26;103024.59;5035034;28;48007;-74
2022/01/17 00:36:53;;;;;;;;;41.75;35.00;;;;;8.93;68.45;103043.41;5018870;28;46706;-75
2022/01/17 00:39:19;;;;;;;;;36.25;27.50;;;;;8.70;68.75;103006.72;5018234;28;45410;-74
2022/01/17 00:41:44;;;;;;;;;32.25;30.00;;;;;8.81;68.88;103020.19;5018083;28;45552;-74
2022/01/17 00:44:10;;;;;;;;;31.25;25.25;;;;;8.78;68.81;103015.72;5019541;28;45506;-74
2022/01/17 00:46:36;;;;;;;;;34.50;30.25;;;;;8.74;68.97;103007.66;5017218;28;45459;-75
2022/01/17 00:49:02;;;;;;;;;35.75;26.00;;;;;8.84;68.72;103023.78;5017898;28;45431;-74
2022/01/17 00:51:28;;;;;;;;;37.50;32.50;;;;;8.81;69.21;103015.75;5033066;28;45651;-74
2022/01/17 00:53:53;;;;;;;;;34.00;30.50;;;;;9.00;69.13;103043.47;5019414;28;45885;-74
2022/01/17 00:56:20;;;;;;;;;38.50;35.25;;;;;9.07;69.57;103055.09;5018496;28;45320;-74
2022/01/17 00:58:46;;;;;;;;;35.25;32.50;;;;;8.87;69.62;103017.56;5019630;28;45290;-75
2022/01/17 01:01:11;;;;;;;;;31.50;28.75;;;;;9.05;68.91;103046.19;5017981;28;45749;-75
2022/01/17 01:03:37;;;;;;;;;27.25;26.00;;;;;9.11;69.56;103051.59;5019217;28;46393;-75
2022/01/17 01:06:03;;;;;;;;;34.25;28.50;;;;;9.12;69.10;103056.06;5017785;28;46488;-74
2022/01/17 01:08:29;;;;;;;;;37.25;31.75;;;;;8.92;69.33;103017.63;5019515;28;45344;-74
2022/01/17 01:10:54;;;;;;;;;34.75;32.50;;;;;9.05;69.74;103039.13;5018885;28;45497;-74
2022/01/17 01:13:23;;;;;;;;;33.50;30.50;;;;;9.04;69.53;103033.75;5018871;28;45399;-74
2022/01/17 01:16:10;;;;;;;;;35.50;29.50;;;;;9.14;69.61;103048.06;5018680;28;45703;-75
2022/01/17 01:18:49;;;;;;;;;35.75;32.50;;;;;8.86;69.32;103006.03;5008471;28;45399;-74
2022/01/17 01:29:27;;;;;;;;;40.25;33.50;;;;;8.91;69.04;103008.75;5019191;28;45325;-74
2022/01/17 01:31:58;;;;;;;;;32.25;28.75;;;;;8.84;69.02;102998.91;5017431;28;45505;-74
2022/01/17 01:34:33;;;;;;;;;41.75;37.25;;;;;9.13;69.01;103054.28;5018333;28;47901;-74
2022/01/17 01:36:59;;;;;;;;;38.75;34.75;;;;;8.90;69.19;103006.94;5014718;28;45703;-75
2022/01/17 01:39:24;;;;;;;;;39.75;33.75;;;;;8.89;69.37;103007.84;5022324;28;45232;-74
2022/01/17 01:41:52;;;;;;;;;37.25;34.50;;;;;8.95;69.22;103023.00;5021999;28;45822;-74
2022/01/17 01:44:20;;;;;;;;;39.25;34.75;;;;;9.12;69.00;103049.81;5022111;28;45461;-74
2022/01/17 01:46:47;;;;;;;;;40.75;34.50;;;;;8.95;68.96;103029.22;5021711;28;45592;-74
2022/01/17 01:49:14;;;;;;;;;39.75;35.50;;;;;8.89;69.16;103007.84;5020489;28;45423;-74
2022/01/17 01:51:43;;;;;;;;;47.25;34.25;;;;;8.83;69.23;103011.31;5022119;28;46059;-75
2022/01/17 01:54:09;;;;;;;;;46.25;39.00;;;;;8.81;69.01;103005.09;5021957;28;45441;-74
2022/01/17 01:56:40;;;;;;;;;40.75;34.50;;;;;9.11;68.98;103059.59;5021502;28;45394;-74
2022/01/17 01:59:06;;;;;;;;;40.50;35.75;;;;;8.90;68.92;103022.94;5022279;28;45333;-74
2022/01/17 02:01:33;;;;;;;;;41.25;34.50;;;;;9.07;68.72;103060.41;5021738;28;45419;-74
2022/01/17 02:03:59;;;;;;;;;36.50;32.25;;;;;8.83;68.95;103018.44;5022023;28;45448;-75
2022/01/17 02:06:24;;;;;;;;;39.25;35.00;;;;;9.10;69.17;103071.09;5021109;28;45314;-74
2022/01/17 02:08:50;;;;;;;;;39.25;34.25;;;;;8.90;68.81;103042.50;5022143;28;45359;-75
2022/01/17 02:11:16;;;;;;;;;39.75;35.00;;;;;8.92;68.87;103041.59;5021232;28;45503;-75
2022/01/17 02:13:41;;;;;;;;;36.00;31.50;;;;;8.84;68.83;103028.22;5021733;28;46299;-75
2022/01/17 02:16:11;;;;;;;;;40.50;35.75;;;;;8.97;68.99;103047.88;5019757;28;45214;-74
2022/01/17 02:18:37;;;;;;;;;34.50;32.25;;;;;8.85;68.67;103032.66;5010724;28;45499;-74
2022/01/17 02:23:43;;;;;;;;;38.50;34.25;;;;;8.78;69.18;103022.81;5021488;28;45970;-75
2022/01/17 02:26:09;;;;;;;;;36.00;33.25;;;;;9.11;68.83;103069.38;5020921;28;45621;-74
2022/01/17 02:28:36;;;;;;;;;37.25;33.75;;;;;8.77;68.72;103007.69;5021648;28;45299;-74
2022/01/17 02:31:06;;;;;;;;;42.75;36.00;;;;;9.07;68.81;103057.75;5020300;28;45439;-74
2022/01/17 02:33:33;;;;;;;;;40.75;34.75;;;;;8.88;68.65;103030.03;5021115;28;45550;-75
2022/01/17 02:36:00;;;;;;;;;42.50;36.50;;;;;8.86;68.78;103021.13;5033346;28;45782;-75
2022/01/17 02:38:25;;;;;;;;;39.75;34.25;;;;;8.74;68.45;102997.91;5017983;28;45382;-75
2022/01/17 02:40:52;;;;;;;;;40.25;34.75;;;;;8.88;69.18;103012.25;5020978;28;45261;-74
2022/01/17 02:43:20;;;;;;;;;41.25;35.50;;;;;8.96;68.52;103023.00;5019712;28;48393;-75
2022/01/17 02:48:22;;;;;;;;;43.25;35.00;;;;;8.92;68.89;103020.28;5018628;28;45516;-75
2022/01/17 02:50:48;;;;;;;;;38.25;35.00;;;;;9.05;68.59;103049.78;5017803;28;45469;-74
2022/01/17 02:53:14;;;;;;;;;39.75;36.75;;;;;9.01;68.84;103039.06;5021047;28;45363;-74
2022/01/17 02:55:48;;;;;;;;;39.00;36.50;;;;;9.02;68.63;103041.75;5013198;28;45312;-74
2022/01/17 02:58:14;;;;;;;;;39.00;34.75;;;;;8.87;69.02;103015.81;5020830;28;45514;-74
2022/01/17 03:00:39;;;;;;;;;36.00;32.75;;;;;8.87;69.05;103012.25;5021079;28;45474;-75
2022/01/17 03:03:09;;;;;;;;;40.00;35.00;;;;;9.11;68.90;103054.25;5019103;28;47357;-74
2022/01/17 03:05:35;;;;;;;;;35.25;28.75;;;;;9.12;68.65;103052.47;5020991;28;45304;-74
2022/01/17 03:08:00;;;;;;;;;47.50;35.00;;;;;8.89;68.85;103021.16;5021029;28;45375;-74
2022/01/17 03:10:43;;;;;;;;;44.00;36.00;;;;;8.89;68.52;103022.06;5020361;28;45450;-74
2022/01/17 03:13:18;;;;;;;;;33.25;31.00;;;;;9.12;68.90;103064.06;5008508;28;45352;-74
2022/01/17 03:15:46;;;;;;;;;40.00;34.50;;;;;8.93;69.04;103032.75;5035992;28;45516;-74
2022/01/17 03:18:12;;;;;;;;;35.75;32.00;;;;;8.94;68.96;103035.44;5002975;28;45336;-74
2022/01/17 03:20:38;;;;;;;;;36.25;34.75;;;;;9.08;68.84;103071.09;5016939;28;45348;-74
2022/01/17 03:23:04;;;;;;;;;41.50;34.50;;;;;9.07;68.67;103066.66;5019117;28;45537;-74
2022/01/17 03:25:30;;;;;;;;;40.50;34.50;;;;;8.99;68.86;103056.81;5020490;28;45464;-74
2022/01/17 03:27:56;;;;;;;;;44.00;37.25;;;;;9.10;68.81;103076.44;5020841;28;45233;-74
2022/01/17 03:30:22;;;;;;;;;37.50;34.50;;;;;8.84;68.69;103031.75;5019238;28;45296;-74
2022/01/17 03:32:48;;;;;;;;;38.00;32.50;;;;;8.85;69.05;103030.91;5018442;28;46476;-75
2022/01/17 03:35:15;;;;;;;;;40.75;36.25;;;;;8.92;68.99;103055.84;5017342;28;45820;-74
2022/01/17 03:37:40;;;;;;;;;33.25;33.25;;;;;9.03;69.43;103069.25;5035895;28;45354;-74
2022/01/17 03:40:07;;;;;;;;;42.00;35.75;;;;;9.14;68.80;103080.94;5020422;28;45499;-74
2022/01/17 03:42:33;;;;;;;;;35.00;30.00;;;;;9.00;68.69;103059.44;5020437;28;45320;-74
2022/01/17 03:45:00;;;;;;;;;40.25;35.00;;;;;8.95;69.00;103052.28;5018263;28;45630;-74
2022/01/17 03:47:26;;;;;;;;;37.00;32.50;;;;;9.17;68.79;103086.31;5020109;28;45427;-74
2022/01/17 03:49:52;;;;;;;;;43.75;37.00;;;;;8.97;69.13;103056.78;5016768;28;45339;-74
2022/01/17 03:52:17;;;;;;;;;40.50;36.50;;;;;9.09;69.12;103072.00;5020210;28;45459;-74
2022/01/17 03:54:43;;;;;;;;;32.00;32.00;;;;;9.17;68.85;103094.31;5019940;28;45388;-75
2022/01/17 03:57:09;;;;;;;;;37.50;33.50;;;;;8.97;69.25;103067.44;5020079;28;45442;-74
2022/01/17 03:59:34;;;;;;;;;39.00;34.00;;;;;8.93;69.07;103057.59;5018950;28;45324;-74
2022/01/17 04:02:00;;;;;;;;;35.50;33.75;;;;;8.88;69.40;103046.88;5019919;28;45483;-74
2022/01/17 04:04:25;;;;;;;;;36.75;34.50;;;;;8.96;69.11;103056.75;5009958;28;45382;-74
2022/01/17 04:06:50;;;;;;;;;36.00;33.75;;;;;8.98;69.04;103060.34;5019474;28;45595;-74
2022/01/17 04:09:16;;;;;;;;;33.75;32.50;;;;;8.94;69.25;103061.16;5019894;28;46235;-74
2022/01/17 04:11:42;;;;;;;;;39.00;36.50;;;;;8.95;69.14;103060.28;5019536;28;46503;-74
2022/01/17 04:14:09;;;;;;;;;36.75;31.25;;;;;9.08;69.13;103084.41;5018978;28;45303;-74
2022/01/17 04:16:35;;;;;;;;;35.00;29.00;;;;;9.25;69.22;103113.94;5019752;28;45412;-75
2022/01/17 04:19:00;;;;;;;;;40.25;35.00;;;;;9.26;69.08;103105.06;5009062;28;45618;-75
2022/01/17 04:21:31;;;;;;;;;38.75;33.50;;;;;9.17;68.91;103098.72;5019687;28;45535;-75
2022/01/17 04:23:56;;;;;;;;;37.50;33.50;;;;;9.22;69.29;103110.31;5019114;28;45356;-75
2022/01/17 04:26:22;;;;;;;;;38.00;35.00;;;;;9.15;68.90;103103.16;5017994;28;45478;-75
2022/01/17 04:28:47;;;;;;;;;42.50;36.50;;;;;9.14;69.41;103102.25;5018665;28;45431;-74
2022/01/17 04:31:12;;;;;;;;;32.25;31.25;;;;;9.21;69.64;103119.22;5019405;28;45361;-74
2022/01/17 04:33:38;;;;;;;;;39.50;35.00;;;;;9.18;69.30;103108.50;5019021;28;45423;-75
2022/01/17 04:36:06;;;;;;;;;35.00;32.25;;;;;9.22;69.04;103111.25;5019515;28;45512;-74
2022/01/17 04:38:32;;;;;;;;;38.25;33.25;;;;;9.30;69.17;103111.31;5018802;28;45560;-74
2022/01/17 04:41:03;;;;;;;;;39.50;35.25;;;;;9.27;69.48;103112.19;5019122;28;45552;-75
2022/01/17 04:46:06;;;;;;;;;39.25;35.00;;;;;9.12;69.23;103073.78;5019373;28;45379;-75
2022/01/17 04:48:32;;;;;;;;;37.75;34.75;;;;;9.14;69.34;103088.94;5017329;28;45537;-74
2022/01/17 04:50:58;;;;;;;;;37.00;33.50;;;;;9.28;69.58;103110.41;5014272;28;46239;-74
2022/01/17 04:53:28;;;;;;;;;37.50;32.25;;;;;9.11;69.11;103078.25;5014634;28;45400;-75
2022/01/17 04:55:53;;;;;;;;;40.00;35.00;;;;;9.13;69.27;103080.91;5015208;28;45247;-75
2022/01/17 04:58:18;;;;;;;;;40.25;33.00;;;;;9.06;69.28;103082.63;5018874;28;45528;-74
2022/01/17 05:00:48;;;;;;;;;31.50;31.50;;;;;9.21;69.24;103100.56;5034606;28;46961;-74
2022/01/17 05:03:19;;;;;;;;;26.75;23.75;;;;;9.14;68.75;103093.34;5017626;28;45992;-74
2022/01/17 05:05:46;;;;;;;;;23.25;22.75;;;;;9.36;68.61;103132.69;5018996;28;45319;-74
2022/01/17 05:08:12;;;;;;;;;21.50;19.50;;;;;9.30;68.25;103113.09;5019350;28;45491;-75
2022/01/17 05:10:37;;;;;;;;;20.00;17.75;;;;;9.12;68.50;103081.78;5020697;28;47205;-74
2022/01/17 05:13:03;;;;;;;;;23.25;18.25;;;;;8.98;68.55;103053.22;5019777;28;45253;-74
2022/01/17 05:15:35;;;;;;;;;19.50;17.75;;;;;9.18;68.43;103082.75;5012248;28;45451;-74
2022/01/17 05:20:37;;;;;;;;;17.50;16.00;;;;;9.32;68.67;103128.22;5019309;28;46158;-75
2022/01/17 05:23:02;;;;;;;;;16.75;16.00;;;;;9.28;67.66;103118.41;5021965;28;45423;-75
2022/01/17 05:25:28;;;;;;;;;12.00;12.00;;;;;9.31;68.40;103125.53;5021884;28;45830;-75
2022/01/17 05:27:54;;;;;;;;;14.50;13.00;;;;;9.36;68.16;103131.81;5021187;28;45458;-72
2022/01/17 05:30:23;;;;;;;;;16.25;15.25;;;;;9.14;68.20;103101.34;5022322;28;45940;-72
2022/01/17 05:32:50;;;;;;;;;16.25;16.25;;;;;9.33;67.95;103138.00;5022134;28;45649;-72
2022/01/17 05:35:16;;;;;;;;;27.00;22.25;;;;;9.20;67.50;103110.31;5020000;28;45348;-72
2022/01/17 05:37:44;;;;;;;;;21.25;17.50;;;;;9.17;67.98;103104.97;5022110;28;46605;-72
2022/01/17 05:40:11;;;;;;;;;16.50;16.50;;;;;9.18;67.89;103111.19;5020699;28;47506;-72
2022/01/17 05:42:37;;;;;;;;;22.75;20.75;;;;;9.16;67.97;103116.50;5037571;28;45871;-72
2022/01/17 05:45:04;;;;;;;;;20.75;19.25;;;;;9.28;67.91;103129.06;5030782;28;45486;-72
2022/01/17 05:47:29;;;;;;;;;22.50;19.50;;;;;9.34;67.94;103133.56;5020818;28;45644;-74
2022/01/17 05:49:55;;;;;;;;;25.00;22.50;;;;;9.28;68.13;103134.38;5019739;28;45899;-74
2022/01/17 05:52:20;;;;;;;;;23.75;21.50;;;;;9.30;68.23;103145.06;5022133;28;45237;-75
2022/01/17 05:54:46;;;;;;;;;22.25;20.00;;;;;9.34;68.10;103153.13;5013475;28;45463;-75
2022/01/17 05:57:12;;;;;;;;;32.25;28.75;;;;;9.29;67.66;103144.19;5021867;28;45256;-75
2022/01/17 05:59:38;;;;;;;;;23.00;21.50;;;;;9.35;67.96;103165.56;5021175;28;46319;-75
2022/01/17 06:02:04;;;;;;;;;29.75;28.25;;;;;9.27;67.78;103162.81;5021239;28;45785;-74
2022/01/17 06:04:29;;;;;;;;;24.25;21.00;;;;;9.32;68.53;103162.88;5020614;28;45395;-75
2022/01/17 06:06:54;;;;;;;;;29.25;27.25;;;;;9.22;68.31;103143.22;5020685;28;45429;-74
2022/01/17 06:09:20;;;;;;;;;29.00;25.75;;;;;9.26;68.35;103150.34;5020345;28;48335;-74
2022/01/17 06:11:45;;;;;;;;;17.75;16.00;;;;;9.33;68.26;103155.78;5021211;28;45398;-75
2022/01/17 06:14:15;;;;;;;;;32.00;28.75;;;;;9.14;68.30;103126.25;5016326;28;45277;-75
2022/01/17 06:16:41;;;;;;;;;35.25;30.25;;;;;9.11;68.41;103120.88;5033374;28;45430;-75
2022/01/17 06:19:06;;;;;;;;;33.50;30.25;;;;;9.33;68.39;103153.09;5018080;28;46185;-74
2022/01/17 06:21:32;;;;;;;;;30.25;27.75;;;;;9.37;67.84;103165.56;5020057;28;45584;-75
2022/01/17 06:24:00;;;;;;;;;28.50;27.50;;;;;9.33;68.00;103155.78;5021145;28;45288;-75
2022/01/17 06:26:26;;;;;;;;;26.25;24.75;;;;;9.16;68.18;103128.94;5021717;28;45369;-75
2022/01/17 06:28:51;;;;;;;;;30.50;30.50;;;;;9.09;67.60;103117.31;5017352;28;45347;-75
2022/01/17 06:31:16;;;;;;;;;36.50;31.50;;;;;9.19;67.93;103148.50;5013255;28;45223;-75
2022/01/17 06:33:42;;;;;;;;;35.75;31.75;;;;;9.34;68.32;103176.19;5021367;28;46685;-75
2022/01/17 06:36:07;;;;;;;;;32.25;29.50;;;;;9.24;67.60;103170.78;5021577;28;45307;-75
2022/01/17 06:38:33;;;;;;;;;37.25;31.25;;;;;9.33;68.23;103185.97;5020466;28;45512;-75
2022/01/17 06:40:58;;;;;;;;;34.75;31.75;;;;;9.32;68.26;103192.19;5021163;28;45344;-75
2022/01/17 06:43:23;;;;;;;;;31.25;28.50;;;;;9.27;68.40;103192.13;5021413;28;45432;-75
2022/01/17 06:45:49;;;;;;;;;30.75;28.25;;;;;9.01;67.61;103142.97;5021157;28;45423;-75
2022/01/17 06:48:14;;;;;;;;;35.00;30.00;;;;;9.33;67.65;103212.63;5020820;28;45382;-75
2022/01/17 06:50:39;;;;;;;;;38.50;32.00;;;;;9.05;67.52;103180.31;5014513;28;45585;-75
2022/01/17 06:53:05;;;;;;;;;34.25;32.25;;;;;9.02;67.67;103184.69;5021144;28;45371;-75
2022/01/17 06:55:30;;;;;;;;;34.00;30.00;;;;;9.26;67.81;103224.09;5021059;28;45534;-74
2022/01/17 06:57:56;;;;;;;;;35.25;32.75;;;;;9.01;67.71;103170.47;5020805;28;45947;-75
2022/01/17 07:00:21;;;;;;;;;34.75;27.00;;;;;9.21;67.91;103201.84;5020331;28;45456;-75
2022/01/17 07:02:47;;;;;;;;;27.50;27.00;;;;;8.83;67.84;103135.63;5020896;28;45424;-75
2022/01/17 07:05:13;;;;;;;;;28.75;27.00;;;;;9.14;67.58;103197.28;5019515;28;45597;-71
2022/01/17 07:07:39;;;;;;;;;38.75;34.00;;;;;9.01;67.52;103185.59;5020846;28;45403;-77
2022/01/17 07:10:05;;;;;;;;;32.50;28.00;;;;;9.08;68.05;103188.31;5016878;28;45517;-78
2022/01/17 07:12:31;;;;;;;;;40.50;33.75;;;;;9.02;68.11;103185.59;5020690;28;45374;-77
2022/01/17 07:14:56;;;;;;;;;30.50;29.00;;;;;9.03;68.10;103207.81;5020513;28;45540;-77
2022/01/17 07:17:21;;;;;;;;;32.50;24.75;;;;;8.99;67.95;103211.31;5019154;28;45491;-77
2022/01/17 07:19:47;;;;;;;;;31.75;25.25;;;;;8.93;67.71;103222.75;5012600;28;45208;-77
2022/01/17 07:22:12;;;;;;;;;29.00;27.25;;;;;9.09;67.81;103254.06;5020685;28;45273;-76
2022/01/17 07:24:39;;;;;;;;;25.00;24.00;;;;;9.00;67.76;103245.94;5019688;28;45261;-78
2022/01/17 07:27:04;;;;;;;;;23.75;18.25;;;;;8.92;67.72;103223.66;5035668;28;46545;-77
2022/01/17 07:29:30;;;;;;;;;29.00;25.00;;;;;9.18;67.71;103271.97;5020739;28;45431;-78
2022/01/17 07:31:55;;;;;;;;;28.50;25.25;;;;;8.99;67.83;103220.19;5019978;28;45206;-77
2022/01/17 07:34:21;;;;;;;;;25.00;24.00;;;;;9.07;67.88;103220.28;5018450;28;45426;-77
2022/01/17 07:36:47;;;;;;;;;26.75;22.25;;;;;9.27;67.80;103257.84;5016542;28;48400;-76
2022/01/17 07:39:12;;;;;;;;;30.25;26.50;;;;;9.02;67.67;103211.31;5018885;28;45489;-75
2022/01/17 07:41:38;;;;;;;;;22.50;22.50;;;;;9.17;67.74;103248.88;5017173;28;45815;-74
2022/01/17 07:44:05;;;;;;;;;30.50;28.00;;;;;9.06;67.89;103221.16;5018669;28;45337;-75
2022/01/17 07:49:13;;;;;;;;;27.00;23.00;;;;;9.08;67.83;103230.06;5019608;28;45491;-74
2022/01/17 07:51:40;;;;;;;;;28.50;23.50;;;;;9.08;67.64;103230.06;5011745;28;45415;-75
2022/01/17 07:54:10;;;;;;;;;30.25;25.25;;;;;9.23;67.80;103261.38;5019702;28;45581;-75
2022/01/17 07:56:36;;;;;;;;;28.50;26.50;;;;;8.96;67.57;103227.25;5019570;28;45318;-75
2022/01/17 07:59:02;;;;;;;;;25.25;25.00;;;;;9.21;67.45;103268.44;5019481;28;45279;-76
2022/01/17 08:01:27;;;;;;;;;31.00;27.50;;;;;8.89;67.54;103215.63;5017879;28;45628;-75
2022/01/17 08:03:53;;;;;;;;;24.50;22.50;;;;;9.04;67.12;103244.25;5018419;28;45740;-75
2022/01/17 08:06:18;;;;;;;;;21.25;21.25;;;;;9.23;67.41;103288.91;5020050;28;46554;-75
2022/01/17 08:08:44;;;;;;;;;31.00;27.50;;;;;8.98;67.39;103239.69;5018408;28;45491;-75
2022/01/17 08:11:09;;;;;;;;;26.25;23.00;;;;;8.90;67.08;103217.38;5034938;28;45475;-75
2022/01/17 08:13:34;;;;;;;;;29.25;27.25;;;;;8.86;66.98;103229.78;5035169;28;45709;-75
2022/01/17 08:16:02;;;;;;;;;33.75;31.50;;;;;8.90;67.31;103234.28;5015096;28;45474;-75
2022/01/17 08:18:30;;;;;;;;;36.00;30.00;;;;;8.80;67.47;103210.13;5011474;28;45142;-76
2022/01/17 08:20:55;;;;;;;;;34.75;31.00;;;;;9.23;66.89;103286.25;5031878;28;45279;-77
2022/01/17 08:23:21;;;;;;;;;31.50;27.75;;;;;9.02;66.84;103253.97;5017817;28;45311;-78
2022/01/17 08:25:46;;;;;;;;;31.00;28.00;;;;;8.96;66.88;103253.91;5009238;28;46308;-78
2022/01/17 08:28:13;;;;;;;;;32.00;30.00;;;;;9.20;66.99;103299.50;5018145;28;45511;-77
2022/01/17 08:30:39;;;;;;;;;29.50;27.25;;;;;9.17;67.56;103295.91;5033246;28;45427;-77
2022/01/17 08:33:04;;;;;;;;;38.00;33.00;;;;;9.11;67.05;103283.41;5015517;28;45481;-77
2022/01/17 08:35:30;;;;;;;;;32.50;29.25;;;;;8.94;67.15;103261.84;5014160;28;48274;-77
2022/01/17 08:37:55;;;;;;;;;33.25;29.00;;;;;9.11;67.13;103299.41;5009636;28;45399;-77
2022/01/17 08:40:22;;;;;;;;;41.00;31.25;;;;;8.79;66.80;103249.19;5015611;28;45907;-77
2022/01/17 08:42:49;;;;;;;;;37.00;32.75;;;;;8.93;67.40;103275.16;5015583;28;45551;-78
2022/01/17 08:45:16;;;;;;;;;39.00;33.25;;;;;8.84;67.25;103265.25;5032043;28;46778;-77
2022/01/17 08:47:46;;;;;;;;;29.50;26.50;;;;;9.09;67.06;103309.16;5017975;28;45312;-77
2022/01/17 08:50:12;;;;;;;;;32.75;28.00;;;;;8.97;67.04;103284.97;5029295;28;45505;-77
2022/01/17 08:52:37;;;;;;;;;37.50;34.25;;;;;8.84;66.90;103259.94;5015707;28;45474;-78
2022/01/17 08:55:03;;;;;;;;;36.50;28.50;;;;;8.92;67.02;103287.59;5019455;28;45385;-77
2022/01/17 08:57:28;;;;;;;;;36.25;27.50;;;;;8.90;67.27;103287.56;5009971;28;45514;-77
2022/01/17 08:59:54;;;;;;;;;43.25;31.50;;;;;8.92;67.47;103289.34;5014247;28;45309;-76
2022/01/17 09:02:19;;;;;;;;;36.25;32.25;;;;;9.12;67.48;103318.94;5020164;28;45507;-78
2022/01/17 09:04:46;;;;;;;;;42.50;31.50;;;;;8.88;67.45;103283.94;5032872;28;48454;-76
2022/01/17 09:07:15;;;;;;;;;35.75;32.25;;;;;9.08;67.20;103318.00;5015973;28;45720;-76
2022/01/17 09:09:41;;;;;;;;;36.75;31.00;;;;;9.10;67.81;103310.91;5008640;28;45479;-75
2022/01/17 09:12:09;;;;;;;;;29.25;26.50;;;;;9.21;67.25;103322.63;5017068;28;45463;-74
2022/01/17 09:14:35;;;;;;;;;38.25;32.00;;;;;8.99;67.46;103281.47;5014359;28;46533;-74
2022/01/17 09:17:02;;;;;;;;;42.00;36.50;;;;;9.26;67.51;103334.25;5016573;28;45874;-74
2022/01/17 09:19:28;;;;;;;;;30.00;26.50;;;;;9.14;67.37;103314.53;5014320;28;45428;-74
2022/01/17 09:21:54;;;;;;;;;43.50;35.50;;;;;9.32;67.46;103338.81;5014378;28;45558;-74
2022/01/17 09:24:20;;;;;;;;;43.00;35.00;;;;;9.12;67.19;103309.19;5017890;28;45820;-74
2022/01/17 09:26:46;;;;;;;;;29.75;29.50;;;;;9.24;67.28;103330.69;5035874;28;45536;-74
2022/01/17 09:29:12;;;;;;;;;36.25;35.00;;;;;9.24;67.21;103330.69;5018122;28;45421;-74
2022/01/17 09:31:38;;;;;;;;;33.75;30.50;;;;;9.24;67.00;103332.47;5016992;28;45484;-75
2022/01/17 09:34:03;;;;;;;;;33.50;29.25;;;;;9.24;67.22;103329.81;5013295;28;47328;-74
2022/01/17 09:36:31;;;;;;;;;31.75;28.75;;;;;9.53;66.76;103385.31;5035815;28;45711;-76
2022/01/17 09:38:57;;;;;;;;;37.25;32.50;;;;;9.48;67.47;103385.22;5019495;28;45855;-75
2022/01/17 09:41:23;;;;;;;;;31.50;30.50;;;;;9.47;67.28;103386.09;5019344;28;45482;-72
2022/01/17 09:43:50;;;;;;;;;31.50;28.25;;;;;9.44;66.88;103373.63;5006328;28;46709;-72
2022/01/17 09:46:17;;;;;;;;;38.25;35.75;;;;;9.53;66.68;103366.63;5015342;28;45657;-71
2022/01/17 09:48:47;;;;;;;;;42.00;36.00;;;;;9.60;66.67;103369.38;5018323;28;45501;-72
2022/01/17 09:51:30;;;;;;;;;35.00;31.75;;;;;9.59;66.82;103367.63;5034592;28;45569;-72
2022/01/17 09:53:58;;;;;;;;;41.00;35.00;;;;;9.39;67.42;103330.00;5009324;28;46760;-73
2022/01/17 09:56:25;;;;;;;;;42.25;36.50;;;;;9.44;67.21;103343.41;5019037;28;45599;-72
2022/01/17 09:58:51;;;;;;;;;44.00;35.25;;;;;9.62;67.11;103375.66;5009163;28;45498;-72
2022/01/17 10:01:16;;;;;;;;;39.00;34.50;;;;;9.54;67.48;103372.00;5035791;28;45535;-73
2022/01/17 10:03:42;;;;;;;;;34.25;34.00;;;;;9.49;67.74;103354.13;4996616;28;47402;-73
2022/01/17 10:06:07;;;;;;;;;38.00;36.25;;;;;9.60;67.44;103374.72;5015933;28;45651;-73
2022/01/17 10:08:33;;;;;;;;;35.75;32.25;;;;;9.46;67.41;103358.53;5006100;28;45364;-73
2022/01/17 10:11:01;;;;;;;;;37.50;32.75;;;;;9.43;67.48;103362.94;5015466;28;45299;-73
2022/01/17 10:13:28;;;;;;;;;34.00;31.50;;;;;9.75;67.16;103423.84;5018275;28;45545;-73
2022/01/17 10:15:58;;;;;;;;;35.75;31.25;;;;;9.78;67.23;103416.75;5033009;28;45383;-72
2022/01/17 10:18:34;;;;;;;;;40.00;35.75;;;;;9.83;66.80;103419.50;5012644;28;45598;-74
2022/01/17 10:21:14;;;;;;;;;37.50;29.75;;;;;9.88;67.14;103424.91;5020072;28;45551;-73
2022/01/17 10:26:17;;;;;;;;;29.25;29.25;;;;;9.92;66.75;103416.97;5009701;28;45689;-74
2022/01/17 10:29:03;;;;;;;;;35.75;30.25;;;;;9.91;67.31;103420.50;5018842;28;45683;-73
2022/01/17 10:36:45;;;;;;;;;31.25;30.75;;;;;9.98;66.27;103421.47;5011613;28;45743;-73
2022/01/17 10:39:11;;;;;;;;;32.75;27.75;;;;;9.96;66.54;103417.91;5034925;28;45533;-74
2022/01/17 10:41:38;;;;;;;;;38.75;34.50;;;;;10.02;67.04;103429.56;5034262;28;45976;-73
2022/01/17 10:44:04;;;;;;;;;31.25;26.50;;;;;9.95;66.40;103421.44;5018943;28;45600;-73
2022/01/17 10:46:29;;;;;;;;;23.75;21.50;;;;;9.97;66.87;103433.00;5007125;28;45650;-73
2022/01/17 10:48:56;;;;;;;;;37.75;32.50;;;;;10.01;66.46;103424.19;5009313;28;45475;-73
2022/01/17 10:51:32;;;;;;;;;33.50;31.00;;;;;10.05;66.26;103425.13;5017797;28;45601;-73
2022/01/17 10:54:09;;;;;;;;;34.00;33.00;;;;;10.08;66.00;103425.16;5033973;28;47170;-74
2022/01/17 10:56:48;;;;;;;;;29.50;28.75;;;;;10.05;66.39;103403.78;5014278;28;45661;-73
2022/01/17 10:59:28;;;;;;;;;31.50;31.50;;;;;10.10;66.52;103400.28;5012930;28;45404;-73
2022/01/17 11:01:54;;;;;;;;;36.75;30.75;;;;;10.12;66.29;103406.53;5012997;28;45543;-73
2022/01/17 11:04:37;;;;;;;;;33.25;28.50;;;;;9.95;66.46;103357.41;5025228;28;47249;-73
2022/01/17 11:07:06;;;;;;;;;34.25;30.75;;;;;9.94;66.09;103344.91;5016884;28;45461;-73
2022/01/17 11:09:46;;;;;;;;;32.00;30.75;;;;;9.92;66.21;103339.59;5018844;28;45534;-73
2022/01/17 11:12:14;;;;;;;;;36.75;34.50;;;;;9.91;66.61;103328.91;5012010;28;45518;-73
2022/01/17 11:14:42;;;;;;;;;29.25;26.75;;;;;10.18;65.56;103374.56;5007042;28;46490;-73
2022/01/17 11:17:34;;;;;;;;;27.50;25.75;;;;;10.23;66.53;103376.41;5014064;28;45572;-73
2022/01/17 11:20:04;;;;;;;;;33.00;29.75;;;;;10.23;66.05;103379.97;5002015;28;45506;-72
2022/01/17 11:22:30;;;;;;;;;42.25;34.75;;;;;10.04;66.32;103343.25;5011340;28;45506;-72
2022/01/17 11:24:58;;;;;;;;;38.50;34.00;;;;;10.20;66.19;103364.78;5015178;28;45544;-73
2022/01/17 11:27:24;;;;;;;;;40.00;36.25;;;;;10.27;65.75;103381.78;5015026;28;45320;-68
2022/01/17 11:29:50;;;;;;;;;28.00;26.25;;;;;10.30;65.84;103372.91;5012908;28;45403;-72
2022/01/17 11:32:16;;;;;;;;;37.25;27.75;;;;;10.33;65.82;103376.53;5012696;28;45423;-73
2022/01/17 11:34:42;;;;;;;;;32.00;28.25;;;;;10.24;65.51;103349.72;5010951;28;46345;-76
2022/01/17 11:37:09;;;;;;;;;40.00;34.50;;;;;10.29;66.03;103358.69;5002896;28;45453;-76
2022/01/17 11:39:53;;;;;;;;;37.25;33.00;;;;;10.32;66.12;103358.75;5007256;28;45265;-76
2022/01/17 11:42:51;;;;;;;;;32.50;30.00;;;;;10.39;65.83;103359.72;5031096;28;45391;-76
2022/01/17 11:45:22;;;;;;;;;32.25;28.00;;;;;10.42;65.63;103362.38;5014260;28;48516;-73
2022/01/17 11:47:52;;;;;;;;;37.25;33.25;;;;;10.43;65.45;103364.19;5011394;28;45273;-77